createdAt,value
2022-12-25T00:00:37.008Z,1007.71
2022-12-25T00:01:36.814Z,1007.73
2022-12-25T00:02:36.821Z,1007.69
2022-12-25T00:03:36.917Z,1007.70
2022-12-25T00:04:36.753Z,1007.67
2022-12-25T00:05:36.773Z,1007.69
2022-12-25T00:06:36.740Z,1007.70
2022-12-25T00:07:36.746Z,1007.68
2022-12-25T00:08:36.712Z,1007.77
2022-12-25T00:09:36.733Z,1007.78
2022-12-25T00:10:44.583Z,1007.80
2022-12-25T00:11:37.811Z,1007.85
2022-12-25T00:12:36.677Z,1007.84
2022-12-25T00:13:36.669Z,1007.86
2022-12-25T00:14:36.637Z,1007.87
2022-12-25T00:15:37.603Z,1007.85
2022-12-25T00:16:36.654Z,1007.87
2022-12-25T00:17:36.620Z,1007.87
2022-12-25T00:18:36.620Z,1007.91
2022-12-25T00:19:36.612Z,1007.91
2022-12-25T00:20:36.625Z,1007.89
2022-12-25T00:21:36.618Z,1007.90
2022-12-25T00:22:36.559Z,1007.93
2022-12-25T00:23:36.571Z,1007.94
2022-12-25T00:24:36.551Z,1007.99
2022-12-25T00:25:36.545Z,1007.98
2022-12-25T00:26:36.528Z,1007.97
2022-12-25T00:27:36.522Z,1007.93
2022-12-25T00:28:36.512Z,1007.98
2022-12-25T00:29:36.502Z,1007.99
2022-12-25T00:30:36.470Z,1008.04
2022-12-25T00:31:36.531Z,1008.06
2022-12-25T00:32:36.485Z,1008.12
2022-12-25T00:33:36.472Z,1008.14
2022-12-25T00:34:36.436Z,1008.16
2022-12-25T00:35:36.447Z,1008.17
2022-12-25T00:36:41.644Z,1008.22
2022-12-25T00:37:37.436Z,1008.21
2022-12-25T00:38:36.408Z,1008.22
2022-12-25T00:39:36.434Z,1008.18
2022-12-25T00:40:36.375Z,1008.16
2022-12-25T00:41:36.362Z,1008.15
2022-12-25T00:42:36.386Z,1008.15
2022-12-25T00:43:36.352Z,1008.14
2022-12-25T00:44:36.351Z,1008.15
2022-12-25T00:45:36.403Z,1008.12
2022-12-25T00:46:36.373Z,1008.11
2022-12-25T00:47:36.297Z,1008.11
2022-12-25T00:48:36.293Z,1008.10
2022-12-25T00:49:36.285Z,1008.15
2022-12-25T00:50:36.300Z,1008.07
2022-12-25T00:51:36.320Z,1008.03
2022-12-25T00:52:36.261Z,1008.02
2022-12-25T00:53:36.222Z,1008.01
2022-12-25T00:54:36.194Z,1007.98
2022-12-25T00:55:36.215Z,1007.96
2022-12-25T00:56:36.201Z,1007.97
2022-12-25T00:57:36.195Z,1007.99
2022-12-25T00:58:36.205Z,1007.97
2022-12-25T00:59:36.189Z,1007.96
2022-12-25T01:00:36.158Z,1007.98
2022-12-25T01:01:36.261Z,1008.00
2022-12-25T01:02:36.332Z,1008.04
2022-12-25T01:03:36.126Z,1008.03
2022-12-25T01:04:36.095Z,1008.10
2022-12-25T01:05:36.107Z,1008.11
2022-12-25T01:06:36.084Z,1008.08
2022-12-25T01:07:36.089Z,1008.09
2022-12-25T01:08:36.097Z,1008.09
2022-12-25T01:09:36.094Z,1008.10
2022-12-25T01:10:36.750Z,1008.05
2022-12-25T01:11:36.941Z,1008.06
2022-12-25T01:12:36.290Z,1008.04
2022-12-25T01:13:36.083Z,1008.03
2022-12-25T01:14:36.009Z,1008.04
2022-12-25T01:15:36.966Z,1008.03
2022-12-25T01:16:36.077Z,1008.07
2022-12-25T01:17:35.990Z,1008.11
2022-12-25T01:18:35.991Z,1008.15
2022-12-25T01:19:36.250Z,1008.19
2022-12-25T01:20:35.946Z,1008.21
2022-12-25T01:21:35.946Z,1008.24
2022-12-25T01:22:36.032Z,1008.28
2022-12-25T01:23:35.933Z,1008.24
2022-12-25T01:24:35.921Z,1008.17
2022-12-25T01:25:35.901Z,1008.14
2022-12-25T01:26:35.871Z,1008.08
2022-12-25T01:27:35.874Z,1008.08
2022-12-25T01:28:35.859Z,1008.07
2022-12-25T01:29:35.862Z,1008.08
2022-12-25T01:30:35.839Z,1008.03
2022-12-25T01:31:35.887Z,1008.04
2022-12-25T01:32:35.812Z,1008.01
2022-12-25T01:33:35.815Z,1007.99
2022-12-25T01:34:35.791Z,1007.97
2022-12-25T01:35:35.791Z,1008.03
2022-12-25T01:36:35.775Z,1007.94
2022-12-25T01:37:35.785Z,1008.09
2022-12-25T01:38:35.757Z,1008.10
2022-12-25T01:39:35.751Z,1008.10
2022-12-25T01:40:35.735Z,1008.06
2022-12-25T01:41:35.736Z,1008.12
2022-12-25T01:42:35.716Z,1008.12
2022-12-25T01:43:35.718Z,1008.14
2022-12-25T01:44:35.757Z,1008.17
2022-12-25T01:45:35.721Z,1008.14
2022-12-25T01:46:35.668Z,1008.19
2022-12-25T01:47:35.664Z,1008.25
2022-12-25T01:48:35.663Z,1008.25
2022-12-25T01:49:35.640Z,1008.24
2022-12-25T01:50:35.616Z,1008.20
2022-12-25T01:51:35.626Z,1008.20
2022-12-25T01:52:35.617Z,1008.17
2022-12-25T01:53:35.906Z,1008.17
2022-12-25T01:54:35.598Z,1008.19
2022-12-25T01:55:35.566Z,1008.17
2022-12-25T01:56:35.593Z,1008.17
2022-12-25T01:57:35.559Z,1008.15
2022-12-25T01:58:35.547Z,1008.17
2022-12-25T01:59:35.551Z,1008.20
2022-12-25T02:00:35.719Z,1008.18
2022-12-25T02:01:35.677Z,1008.10
2022-12-25T02:02:35.697Z,1008.16
2022-12-25T02:03:35.505Z,1008.18
2022-12-25T02:04:35.540Z,1008.20
2022-12-25T02:05:35.533Z,1008.14
2022-12-25T02:06:35.445Z,1008.19
2022-12-25T02:07:35.449Z,1008.19
2022-12-25T02:08:35.435Z,1008.14
2022-12-25T02:09:35.428Z,1008.11
2022-12-25T02:10:35.405Z,1008.17
2022-12-25T02:11:35.415Z,1008.12
2022-12-25T02:12:35.430Z,1008.13
2022-12-25T02:13:35.384Z,1008.06
2022-12-25T02:14:35.383Z,1008.08
2022-12-25T02:15:35.382Z,1008.09
2022-12-25T02:16:35.401Z,1008.09
2022-12-25T02:17:36.341Z,1008.13
2022-12-25T02:18:35.355Z,1008.13
2022-12-25T02:19:35.336Z,1008.13
2022-12-25T02:20:35.316Z,1008.18
2022-12-25T02:21:35.307Z,1008.20
2022-12-25T02:22:35.302Z,1008.22
2022-12-25T02:23:35.319Z,1008.23
2022-12-25T02:24:35.388Z,1008.17
2022-12-25T02:25:35.279Z,1008.17
2022-12-25T02:26:35.299Z,1008.05
2022-12-25T02:27:35.245Z,1008.07
2022-12-25T02:28:35.260Z,1008.03
2022-12-25T02:29:35.232Z,1008.03
2022-12-25T02:30:35.205Z,1008.00
2022-12-25T02:31:35.277Z,1007.96
2022-12-25T02:32:35.169Z,1008.00
2022-12-25T02:33:35.196Z,1007.93
2022-12-25T02:34:35.181Z,1007.97
2022-12-25T02:35:35.159Z,1007.95
2022-12-25T02:36:35.142Z,1007.92
2022-12-25T02:37:35.131Z,1007.96
2022-12-25T02:38:35.108Z,1007.93
2022-12-25T02:39:35.098Z,1008.01
2022-12-25T02:40:35.122Z,1008.02
2022-12-25T02:41:35.102Z,1008.03
2022-12-25T02:42:35.079Z,1008.00
2022-12-25T02:43:35.086Z,1008.00
2022-12-25T02:44:35.065Z,1007.95
2022-12-25T02:45:35.065Z,1007.91
2022-12-25T02:46:35.057Z,1007.89
2022-12-25T02:47:35.011Z,1007.91
2022-12-25T02:48:35.029Z,1007.91
2022-12-25T02:49:35.002Z,1007.95
2022-12-25T02:50:34.995Z,1007.92
2022-12-25T02:51:34.969Z,1007.88
2022-12-25T02:52:34.994Z,1007.89
2022-12-25T02:53:34.988Z,1007.88
2022-12-25T02:54:35.018Z,1007.88
2022-12-25T02:55:34.939Z,1007.88
2022-12-25T02:56:34.971Z,1007.88
2022-12-25T02:57:34.957Z,1007.87
2022-12-25T02:58:34.910Z,1007.83
2022-12-25T02:59:34.885Z,1007.82
2022-12-25T03:00:34.896Z,1007.85
2022-12-25T03:01:34.957Z,1007.82
2022-12-25T03:02:34.962Z,1007.92
2022-12-25T03:03:34.928Z,1007.84
2022-12-25T03:04:34.863Z,1007.84
2022-12-25T03:05:34.824Z,1007.81
2022-12-25T03:06:34.827Z,1007.92
2022-12-25T03:07:34.828Z,1007.91
2022-12-25T03:08:43.403Z,1007.90
2022-12-25T03:09:34.790Z,1007.83
2022-12-25T03:10:34.782Z,1007.86
2022-12-25T03:11:34.767Z,1007.92
2022-12-25T03:12:34.766Z,1007.99
2022-12-25T03:13:34.741Z,1007.96
2022-12-25T03:14:34.736Z,1007.95
2022-12-25T03:15:34.707Z,1007.92
2022-12-25T03:16:34.795Z,1007.90
2022-12-25T03:17:34.747Z,1007.95
2022-12-25T03:18:34.712Z,1007.93
2022-12-25T03:19:34.711Z,1007.95
2022-12-25T03:20:34.690Z,1007.98
2022-12-25T03:21:34.677Z,1007.99
2022-12-25T03:22:34.645Z,1007.95
2022-12-25T03:23:34.620Z,1007.86
2022-12-25T03:24:34.689Z,1007.81
2022-12-25T03:25:34.677Z,1007.83
2022-12-25T03:26:34.627Z,1007.81
2022-12-25T03:27:34.620Z,1007.83
2022-12-25T03:28:34.588Z,1007.85
2022-12-25T03:29:34.602Z,1007.88
2022-12-25T03:30:34.592Z,1007.84
2022-12-25T03:31:34.547Z,1007.87
2022-12-25T03:32:34.572Z,1007.88
2022-12-25T03:33:44.999Z,1007.86
2022-12-25T03:34:35.549Z,1007.85
2022-12-25T03:35:34.503Z,1007.91
2022-12-25T03:36:34.517Z,1007.93
2022-12-25T03:37:34.511Z,1007.89
2022-12-25T03:38:34.491Z,1007.91
2022-12-25T03:39:34.466Z,1007.86
2022-12-25T03:40:34.485Z,1007.86
2022-12-25T03:41:34.456Z,1007.83
2022-12-25T03:42:34.443Z,1007.90
2022-12-25T03:43:34.435Z,1007.97
2022-12-25T03:44:34.422Z,1007.95
2022-12-25T03:45:34.396Z,1007.95
2022-12-25T03:46:34.562Z,1008.00
2022-12-25T03:47:34.392Z,1008.03
2022-12-25T03:48:34.386Z,1008.06
2022-12-25T03:49:34.368Z,1008.07
2022-12-25T03:50:34.407Z,1008.07
2022-12-25T03:51:34.343Z,1008.04
2022-12-25T03:52:34.337Z,1008.00
2022-12-25T03:53:35.217Z,1008.02
2022-12-25T03:54:35.522Z,1008.07
2022-12-25T03:55:34.463Z,1008.04
2022-12-25T03:56:36.287Z,1007.98
2022-12-25T03:57:34.373Z,1008.02
2022-12-25T03:58:34.287Z,1008.00
2022-12-25T03:59:34.272Z,1007.97
2022-12-25T04:00:34.276Z,1007.95
2022-12-25T04:01:34.306Z,1007.98
2022-12-25T04:02:34.422Z,1007.93
2022-12-25T04:03:34.296Z,1007.88
2022-12-25T04:04:34.228Z,1007.86
2022-12-25T04:05:34.192Z,1007.81
2022-12-25T04:06:34.199Z,1007.82
2022-12-25T04:07:34.187Z,1007.78
2022-12-25T04:08:34.182Z,1007.80
2022-12-25T04:09:34.173Z,1007.78
2022-12-25T04:10:34.160Z,1007.79
2022-12-25T04:11:34.123Z,1007.75
2022-12-25T04:12:34.156Z,1007.76
2022-12-25T04:13:34.113Z,1007.74
2022-12-25T04:14:34.155Z,1007.70
2022-12-25T04:15:34.116Z,1007.74
2022-12-25T04:16:34.102Z,1007.77
2022-12-25T04:17:34.073Z,1007.73
2022-12-25T04:18:34.072Z,1007.75
2022-12-25T04:19:34.064Z,1007.75
2022-12-25T04:20:34.055Z,1007.76
2022-12-25T04:21:34.046Z,1007.75
2022-12-25T04:22:34.052Z,1007.68
2022-12-25T04:23:34.002Z,1007.66
2022-12-25T04:24:34.000Z,1007.66
2022-12-25T04:25:33.985Z,1007.64
2022-12-25T04:26:34.003Z,1007.68
2022-12-25T04:27:33.994Z,1007.63
2022-12-25T04:28:33.969Z,1007.61
2022-12-25T04:29:33.935Z,1007.54
2022-12-25T04:30:33.944Z,1007.48
2022-12-25T04:31:35.511Z,1007.47
2022-12-25T04:32:33.945Z,1007.48
2022-12-25T04:33:33.921Z,1007.47
2022-12-25T04:34:33.889Z,1007.49
2022-12-25T04:35:33.888Z,1007.56
2022-12-25T04:36:33.870Z,1007.56
2022-12-25T04:37:33.848Z,1007.55
2022-12-25T04:38:33.845Z,1007.55
2022-12-25T04:39:33.829Z,1007.58
2022-12-25T04:40:33.839Z,1007.57
2022-12-25T04:41:33.825Z,1007.60
2022-12-25T04:42:33.823Z,1007.55
2022-12-25T04:43:33.802Z,1007.50
2022-12-25T04:44:33.832Z,1007.48
2022-12-25T04:45:33.784Z,1007.46
2022-12-25T04:46:33.889Z,1007.49
2022-12-25T04:47:33.754Z,1007.42
2022-12-25T04:48:33.760Z,1007.45
2022-12-25T04:49:33.719Z,1007.45
2022-12-25T04:50:33.728Z,1007.48
2022-12-25T04:51:33.724Z,1007.46
2022-12-25T04:52:33.704Z,1007.45
2022-12-25T04:53:33.674Z,1007.47
2022-12-25T04:54:33.701Z,1007.45
2022-12-25T04:55:33.651Z,1007.47
2022-12-25T04:56:33.655Z,1007.51
2022-12-25T04:57:33.657Z,1007.50
2022-12-25T04:58:34.268Z,1007.48
2022-12-25T04:59:33.619Z,1007.48
2022-12-25T05:00:33.649Z,1007.50
2022-12-25T05:01:33.693Z,1007.51
2022-12-25T05:02:33.863Z,1007.47
2022-12-25T05:03:33.665Z,1007.50
2022-12-25T05:04:33.574Z,1007.52
2022-12-25T05:05:33.561Z,1007.50
2022-12-25T05:06:33.558Z,1007.48
2022-12-25T05:07:33.543Z,1007.46
2022-12-25T05:08:33.527Z,1007.42
2022-12-25T05:09:33.509Z,1007.43
2022-12-25T05:10:33.525Z,1007.40
2022-12-25T05:11:33.490Z,1007.45
2022-12-25T05:12:33.513Z,1007.44
2022-12-25T05:13:33.482Z,1007.37
2022-12-25T05:14:33.456Z,1007.39
2022-12-25T05:15:33.575Z,1007.41
2022-12-25T05:16:33.501Z,1007.37
2022-12-25T05:17:33.428Z,1007.40
2022-12-25T05:18:33.432Z,1007.37
2022-12-25T05:19:33.406Z,1007.38
2022-12-25T05:20:39.568Z,1007.39
2022-12-25T05:21:34.397Z,1007.39
2022-12-25T05:22:33.384Z,1007.39
2022-12-25T05:23:33.359Z,1007.37
2022-12-25T05:24:33.371Z,1007.35
2022-12-25T05:25:33.368Z,1007.34
2022-12-25T05:26:33.357Z,1007.36
2022-12-25T05:27:33.318Z,1007.38
2022-12-25T05:28:33.331Z,1007.40
2022-12-25T05:29:33.483Z,1007.39
2022-12-25T05:30:33.296Z,1007.42
2022-12-25T05:31:33.330Z,1007.45
2022-12-25T05:32:33.286Z,1007.45
2022-12-25T05:33:33.261Z,1007.41
2022-12-25T05:34:33.269Z,1007.39
2022-12-25T05:35:33.254Z,1007.41
2022-12-25T05:36:33.244Z,1007.37
2022-12-25T05:37:33.216Z,1007.32
2022-12-25T05:38:33.214Z,1007.28
2022-12-25T05:39:33.251Z,1007.27
2022-12-25T05:40:33.192Z,1007.28
2022-12-25T05:41:34.857Z,1007.33
2022-12-25T05:42:33.265Z,1007.39
2022-12-25T05:43:33.153Z,1007.38
2022-12-25T05:44:33.140Z,1007.39
2022-12-25T05:45:33.156Z,1007.38
2022-12-25T05:46:33.169Z,1007.36
2022-12-25T05:47:34.012Z,1007.37
2022-12-25T05:48:33.909Z,1007.35
2022-12-25T05:49:33.567Z,1007.38
2022-12-25T05:50:35.468Z,1007.41
2022-12-25T05:51:33.112Z,1007.39
2022-12-25T05:52:33.165Z,1007.35
2022-12-25T05:53:33.069Z,1007.39
2022-12-25T05:54:33.052Z,1007.34
2022-12-25T05:55:33.013Z,1007.35
2022-12-25T05:56:33.036Z,1007.31
2022-12-25T05:57:33.029Z,1007.34
2022-12-25T05:58:32.997Z,1007.31
2022-12-25T05:59:32.978Z,1007.34
2022-12-25T06:00:33.052Z,1007.35
2022-12-25T06:01:33.107Z,1007.29
2022-12-25T06:02:33.139Z,1007.29
2022-12-25T06:03:32.982Z,1007.26
2022-12-25T06:04:32.959Z,1007.26
2022-12-25T06:05:32.930Z,1007.26
2022-12-25T06:06:32.909Z,1007.28
2022-12-25T06:07:32.902Z,1007.28
2022-12-25T06:08:32.902Z,1007.28
2022-12-25T06:09:32.911Z,1007.31
2022-12-25T06:10:32.875Z,1007.31
2022-12-25T06:11:32.864Z,1007.28
2022-12-25T06:12:32.849Z,1007.29
2022-12-25T06:13:32.842Z,1007.24
2022-12-25T06:14:32.831Z,1007.19
2022-12-25T06:15:32.831Z,1007.16
2022-12-25T06:16:37.827Z,1007.17
2022-12-25T06:17:33.786Z,1007.17
2022-12-25T06:18:32.806Z,1007.14
2022-12-25T06:19:32.771Z,1007.10
2022-12-25T06:20:32.767Z,1007.06
2022-12-25T06:21:32.747Z,1007.02
2022-12-25T06:22:32.754Z,1007.00
2022-12-25T06:23:32.779Z,1006.98
2022-12-25T06:24:32.724Z,1006.89
2022-12-25T06:25:32.715Z,1006.91
2022-12-25T06:26:32.696Z,1006.87
2022-12-25T06:27:32.682Z,1006.86
2022-12-25T06:28:32.697Z,1006.83
2022-12-25T06:29:32.659Z,1006.85
2022-12-25T06:30:32.683Z,1006.88
2022-12-25T06:31:32.730Z,1006.90
2022-12-25T06:32:32.642Z,1006.88
2022-12-25T06:33:32.605Z,1006.84
2022-12-25T06:34:32.629Z,1006.81
2022-12-25T06:35:32.595Z,1006.81
2022-12-25T06:36:32.599Z,1006.73
2022-12-25T06:37:32.608Z,1006.75
2022-12-25T06:38:32.581Z,1006.83
2022-12-25T06:39:32.573Z,1006.81
2022-12-25T06:40:32.564Z,1006.80
2022-12-25T06:41:32.558Z,1006.82
2022-12-25T06:42:32.559Z,1006.86
2022-12-25T06:43:32.509Z,1006.86
2022-12-25T06:44:32.553Z,1006.88
2022-12-25T06:45:32.526Z,1006.88
2022-12-25T06:46:32.493Z,1006.85
2022-12-25T06:47:32.467Z,1006.86
2022-12-25T06:48:32.482Z,1006.85
2022-12-25T06:49:32.459Z,1006.87
2022-12-25T06:50:32.511Z,1006.90
2022-12-25T06:51:32.409Z,1006.90
2022-12-25T06:52:32.416Z,1006.93
2022-12-25T06:53:39.968Z,1006.89
2022-12-25T06:54:33.417Z,1006.89
2022-12-25T06:55:32.397Z,1006.89
2022-12-25T06:56:32.402Z,1006.87
2022-12-25T06:57:32.388Z,1006.91
2022-12-25T06:58:32.397Z,1006.92
2022-12-25T06:59:32.342Z,1006.96
2022-12-25T07:00:32.341Z,1006.96
2022-12-25T07:01:32.503Z,1006.94
2022-12-25T07:02:32.441Z,1006.90
2022-12-25T07:03:32.320Z,1006.88
2022-12-25T07:04:32.339Z,1006.85
2022-12-25T07:05:32.309Z,1006.83
2022-12-25T07:06:32.267Z,1006.88
2022-12-25T07:07:32.249Z,1006.86
2022-12-25T07:08:39.289Z,1006.89
2022-12-25T07:09:34.986Z,1006.91
2022-12-25T07:10:32.236Z,1006.91
2022-12-25T07:11:32.230Z,1006.86
2022-12-25T07:12:32.238Z,1006.85
2022-12-25T07:13:32.199Z,1006.81
2022-12-25T07:14:32.231Z,1006.81
2022-12-25T07:15:32.192Z,1006.79
2022-12-25T07:16:32.285Z,1006.73
2022-12-25T07:17:32.171Z,1006.78
2022-12-25T07:18:32.156Z,1006.76
2022-12-25T07:19:32.175Z,1006.68
2022-12-25T07:20:32.122Z,1006.68
2022-12-25T07:21:32.115Z,1006.65
2022-12-25T07:22:32.103Z,1006.61
2022-12-25T07:23:32.095Z,1006.59
2022-12-25T07:24:32.071Z,1006.61
2022-12-25T07:25:37.030Z,1006.66
2022-12-25T07:26:33.061Z,1006.68
2022-12-25T07:27:32.071Z,1006.65
2022-12-25T07:28:32.091Z,1006.63
2022-12-25T07:29:32.033Z,1006.62
2022-12-25T07:30:32.054Z,1006.62
2022-12-25T07:31:32.087Z,1006.61
2022-12-25T07:32:32.023Z,1006.60
2022-12-25T07:33:32.024Z,1006.60
2022-12-25T07:34:31.979Z,1006.54
2022-12-25T07:35:31.971Z,1006.50
2022-12-25T07:36:31.944Z,1006.44
2022-12-25T07:37:31.995Z,1006.46
2022-12-25T07:38:31.925Z,1006.41
2022-12-25T07:39:32.277Z,1006.45
2022-12-25T07:40:31.893Z,1006.45
2022-12-25T07:41:31.901Z,1006.46
2022-12-25T07:42:31.889Z,1006.46
2022-12-25T07:43:31.875Z,1006.53
2022-12-25T07:44:31.862Z,1006.51
2022-12-25T07:45:31.910Z,1006.45
2022-12-25T07:46:31.841Z,1006.47
2022-12-25T07:47:32.643Z,1006.41
2022-12-25T07:48:31.811Z,1006.42
2022-12-25T07:49:31.811Z,1006.45
2022-12-25T07:50:31.800Z,1006.51
2022-12-25T07:51:31.786Z,1006.54
2022-12-25T07:52:36.612Z,1006.51
2022-12-25T07:53:32.780Z,1006.52
2022-12-25T07:54:31.745Z,1006.54
2022-12-25T07:55:32.096Z,1006.54
2022-12-25T07:56:31.744Z,1006.58
2022-12-25T07:57:31.745Z,1006.64
2022-12-25T07:58:31.837Z,1006.56
2022-12-25T07:59:31.702Z,1006.53
2022-12-25T08:00:31.694Z,1006.51
2022-12-25T08:01:31.928Z,1006.54
2022-12-25T08:02:31.821Z,1006.55
2022-12-25T08:03:31.839Z,1006.56
2022-12-25T08:04:31.661Z,1006.55
2022-12-25T08:05:31.644Z,1006.49
2022-12-25T08:06:31.612Z,1006.50
2022-12-25T08:07:31.619Z,1006.47
2022-12-25T08:08:31.603Z,1006.45
2022-12-25T08:09:31.623Z,1006.42
2022-12-25T08:10:31.591Z,1006.43
2022-12-25T08:11:31.588Z,1006.40
2022-12-25T08:12:31.572Z,1006.37
2022-12-25T08:13:31.563Z,1006.38
2022-12-25T08:14:31.554Z,1006.36
2022-12-25T08:15:32.261Z,1006.36
2022-12-25T08:16:31.584Z,1006.36
2022-12-25T08:17:31.547Z,1006.37
2022-12-25T08:18:31.505Z,1006.39
2022-12-25T08:19:31.502Z,1006.37
2022-12-25T08:20:31.482Z,1006.39
2022-12-25T08:21:31.483Z,1006.45
2022-12-25T08:22:31.462Z,1006.50
2022-12-25T08:23:31.459Z,1006.51
2022-12-25T08:24:31.513Z,1006.59
2022-12-25T08:25:31.448Z,1006.61
2022-12-25T08:26:31.423Z,1006.58
2022-12-25T08:27:31.419Z,1006.64
2022-12-25T08:28:31.395Z,1006.61
2022-12-25T08:29:31.397Z,1006.66
2022-12-25T08:30:31.409Z,1006.64
2022-12-25T08:31:31.459Z,1006.65
2022-12-25T08:32:31.343Z,1006.66
2022-12-25T08:33:31.360Z,1006.64
2022-12-25T08:34:31.378Z,1006.60
2022-12-25T08:35:31.527Z,1006.60
2022-12-25T08:36:31.315Z,1006.60
2022-12-25T08:37:31.354Z,1006.57
2022-12-25T08:38:31.291Z,1006.55
2022-12-25T08:39:31.309Z,1006.51
2022-12-25T08:40:31.258Z,1006.57
2022-12-25T08:41:31.263Z,1006.54
2022-12-25T08:42:31.250Z,1006.55
2022-12-25T08:43:31.251Z,1006.55
2022-12-25T08:44:31.211Z,1006.57
2022-12-25T08:45:34.976Z,1006.54
2022-12-25T08:46:31.288Z,1006.52
2022-12-25T08:47:31.193Z,1006.45
2022-12-25T08:48:31.189Z,1006.45
2022-12-25T08:49:31.255Z,1006.43
2022-12-25T08:50:31.153Z,1006.45
2022-12-25T08:51:31.199Z,1006.38
2022-12-25T08:52:31.160Z,1006.39
2022-12-25T08:53:31.151Z,1006.34
2022-12-25T08:54:31.120Z,1006.29
2022-12-25T08:55:31.109Z,1006.30
2022-12-25T08:56:31.098Z,1006.28
2022-12-25T08:57:31.103Z,1006.29
2022-12-25T08:58:31.085Z,1006.32
2022-12-25T08:59:31.063Z,1006.38
2022-12-25T09:00:31.037Z,1006.40
2022-12-25T09:01:31.164Z,1006.39
2022-12-25T09:02:31.258Z,1006.45
2022-12-25T09:03:31.102Z,1006.45
2022-12-25T09:04:30.999Z,1006.47
2022-12-25T09:05:31.035Z,1006.50
2022-12-25T09:06:31.012Z,1006.54
2022-12-25T09:07:30.985Z,1006.52
2022-12-25T09:08:30.950Z,1006.60
2022-12-25T09:09:31.048Z,1006.58
2022-12-25T09:10:31.008Z,1006.62
2022-12-25T09:11:30.971Z,1006.60
2022-12-25T09:12:30.929Z,1006.60
2022-12-25T09:13:30.914Z,1006.60
2022-12-25T09:14:30.953Z,1006.65
2022-12-25T09:15:30.969Z,1006.63
2022-12-25T09:16:30.920Z,1006.64
2022-12-25T09:17:30.903Z,1006.66
2022-12-25T09:18:30.872Z,1006.61
2022-12-25T09:19:30.869Z,1006.63
2022-12-25T09:20:30.821Z,1006.58
2022-12-25T09:21:30.859Z,1006.58
2022-12-25T09:22:30.932Z,1006.58
2022-12-25T09:23:30.835Z,1006.56
2022-12-25T09:24:30.815Z,1006.56
2022-12-25T09:25:30.792Z,1006.55
2022-12-25T09:26:30.800Z,1006.58
2022-12-25T09:27:30.787Z,1006.60
2022-12-25T09:28:30.771Z,1006.65
2022-12-25T09:29:30.743Z,1006.67
2022-12-25T09:30:30.758Z,1006.71
2022-12-25T09:31:30.795Z,1006.68
2022-12-25T09:32:30.732Z,1006.71
2022-12-25T09:33:30.707Z,1006.71
2022-12-25T09:34:30.704Z,1006.68
2022-12-25T09:35:30.712Z,1006.66
2022-12-25T09:36:30.740Z,1006.61
2022-12-25T09:37:30.707Z,1006.59
2022-12-25T09:38:30.642Z,1006.46
2022-12-25T09:39:30.660Z,1006.41
2022-12-25T09:40:30.635Z,1006.39
2022-12-25T09:41:30.626Z,1006.38
2022-12-25T09:42:30.601Z,1006.24
2022-12-25T09:43:30.610Z,1006.20
2022-12-25T09:44:30.581Z,1006.14
2022-12-25T09:45:30.579Z,1006.04
2022-12-25T09:46:36.922Z,1006.02
2022-12-25T09:47:31.712Z,1006.02
2022-12-25T09:48:30.542Z,1005.95
2022-12-25T09:49:30.779Z,1005.98
2022-12-25T09:50:30.688Z,1005.94
2022-12-25T09:51:30.537Z,1005.95
2022-12-25T09:52:30.498Z,1005.99
2022-12-25T09:53:30.498Z,1005.98
2022-12-25T09:54:30.648Z,1006.00
2022-12-25T09:55:30.502Z,1005.92
2022-12-25T09:56:30.447Z,1005.89
2022-12-25T09:57:30.519Z,1005.88
2022-12-25T09:58:30.420Z,1005.86
2022-12-25T09:59:30.427Z,1005.84
2022-12-25T10:00:30.453Z,1005.83
2022-12-25T10:01:30.565Z,1005.84
2022-12-25T10:02:30.580Z,1005.83
2022-12-25T10:03:30.426Z,1005.79
2022-12-25T10:04:31.307Z,1005.77
2022-12-25T10:05:30.390Z,1005.74
2022-12-25T10:06:30.361Z,1005.74
2022-12-25T10:07:30.480Z,1005.75
2022-12-25T10:08:30.338Z,1005.84
2022-12-25T10:09:30.371Z,1005.90
2022-12-25T10:10:30.284Z,1005.93
2022-12-25T10:11:30.308Z,1005.96
2022-12-25T10:12:30.291Z,1006.02
2022-12-25T10:13:30.297Z,1006.02
2022-12-25T10:14:30.252Z,1006.02
2022-12-25T10:15:30.303Z,1006.06
2022-12-25T10:16:30.292Z,1006.08
2022-12-25T10:17:30.259Z,1006.09
2022-12-25T10:18:30.203Z,1006.11
2022-12-25T10:19:30.235Z,1006.08
2022-12-25T10:20:30.182Z,1006.10
2022-12-25T10:21:30.190Z,1005.96
2022-12-25T10:22:30.179Z,1005.82
2022-12-25T10:23:30.186Z,1005.79
2022-12-25T10:24:30.179Z,1005.78
2022-12-25T10:25:30.151Z,1005.77
2022-12-25T10:26:30.138Z,1005.74
2022-12-25T10:27:30.135Z,1005.76
2022-12-25T10:28:30.120Z,1005.72
2022-12-25T10:29:30.116Z,1005.77
2022-12-25T10:30:30.090Z,1005.71
2022-12-25T10:31:30.214Z,1005.75
2022-12-25T10:32:30.078Z,1005.76
2022-12-25T10:33:30.035Z,1005.79
2022-12-25T10:34:30.056Z,1005.80
2022-12-25T10:35:30.066Z,1005.80
2022-12-25T10:36:30.019Z,1005.80
2022-12-25T10:37:30.032Z,1005.86
2022-12-25T10:38:30.042Z,1005.87
2022-12-25T10:39:30.984Z,1005.87
2022-12-25T10:40:29.980Z,1005.88
2022-12-25T10:41:29.976Z,1005.93
2022-12-25T10:42:29.958Z,1005.91
2022-12-25T10:43:29.956Z,1005.92
2022-12-25T10:44:29.948Z,1005.89
2022-12-25T10:45:29.927Z,1005.91
2022-12-25T10:46:29.969Z,1005.88
2022-12-25T10:47:29.911Z,1005.81
2022-12-25T10:48:29.889Z,1005.84
2022-12-25T10:49:29.888Z,1005.85
2022-12-25T10:50:29.862Z,1005.89
2022-12-25T10:51:29.867Z,1005.95
2022-12-25T10:52:29.852Z,1006.03
2022-12-25T10:53:29.862Z,1005.97
2022-12-25T10:54:29.828Z,1005.98
2022-12-25T10:55:30.031Z,1006.01
2022-12-25T10:56:29.813Z,1006.01
2022-12-25T10:57:29.846Z,1006.03
2022-12-25T10:58:29.890Z,1005.99
2022-12-25T10:59:29.788Z,1005.93
2022-12-25T11:00:29.781Z,1005.89
2022-12-25T11:01:29.839Z,1005.86
2022-12-25T11:02:29.939Z,1005.78
2022-12-25T11:03:29.860Z,1005.75
2022-12-25T11:04:29.717Z,1005.71
2022-12-25T11:05:29.731Z,1005.67
2022-12-25T11:06:29.717Z,1005.66
2022-12-25T11:07:29.751Z,1005.65
2022-12-25T11:08:29.685Z,1005.59
2022-12-25T11:09:29.771Z,1005.48
2022-12-25T11:10:29.683Z,1005.38
2022-12-25T11:11:29.676Z,1005.32
2022-12-25T11:12:29.642Z,1005.35
2022-12-25T11:13:29.627Z,1005.35
2022-12-25T11:14:29.628Z,1005.40
2022-12-25T11:15:29.813Z,1005.41
2022-12-25T11:16:29.659Z,1005.38
2022-12-25T11:17:29.725Z,1005.40
2022-12-25T11:18:29.746Z,1005.42
2022-12-25T11:19:29.573Z,1005.40
2022-12-25T11:20:29.583Z,1005.42
2022-12-25T11:21:29.527Z,1005.46
2022-12-25T11:22:29.564Z,1005.42
2022-12-25T11:23:29.505Z,1005.41
2022-12-25T11:24:29.524Z,1005.49
2022-12-25T11:25:29.498Z,1005.55
2022-12-25T11:26:29.514Z,1005.56
2022-12-25T11:27:29.492Z,1005.57
2022-12-25T11:28:29.484Z,1005.55
2022-12-25T11:29:29.465Z,1005.49
2022-12-25T11:30:29.470Z,1005.46
2022-12-25T11:31:29.505Z,1005.38
2022-12-25T11:32:29.437Z,1005.38
2022-12-25T11:33:29.428Z,1005.26
2022-12-25T11:34:29.426Z,1005.21
2022-12-25T11:35:29.406Z,1005.13
2022-12-25T11:36:29.401Z,1005.12
2022-12-25T11:37:29.355Z,1005.11
2022-12-25T11:38:29.367Z,1005.09
2022-12-25T11:39:29.338Z,1005.18
2022-12-25T11:40:29.442Z,1005.15
2022-12-25T11:41:29.320Z,1005.13
2022-12-25T11:42:29.322Z,1005.09
2022-12-25T11:43:29.332Z,1005.05
2022-12-25T11:44:29.309Z,1004.99
2022-12-25T11:45:29.346Z,1005.04
2022-12-25T11:46:29.361Z,1005.05
2022-12-25T11:47:29.280Z,1005.06
2022-12-25T11:48:29.308Z,1005.07
2022-12-25T11:49:29.257Z,1005.07
2022-12-25T11:50:29.241Z,1005.08
2022-12-25T11:51:29.235Z,1005.07
2022-12-25T11:52:29.220Z,1005.06
2022-12-25T11:53:29.207Z,1005.01
2022-12-25T11:54:29.200Z,1005.00
2022-12-25T11:55:29.171Z,1004.94
2022-12-25T11:56:29.173Z,1004.88
2022-12-25T11:57:29.192Z,1004.79
2022-12-25T11:58:29.187Z,1004.79
2022-12-25T11:59:29.152Z,1004.75
2022-12-25T12:00:29.129Z,1004.72
2022-12-25T12:01:29.248Z,1004.70
2022-12-25T12:02:29.271Z,1004.74
2022-12-25T12:03:29.249Z,1004.72
2022-12-25T12:04:31.848Z,1004.69
2022-12-25T12:05:29.069Z,1004.66